createdAt,value
2022-12-03T00:01:02.756Z,74.85
2022-12-03T00:06:04.569Z,65.57
2022-12-03T00:11:08.141Z,75.63
2022-12-03T00:16:09.902Z,70.70
2022-12-03T00:21:11.647Z,68.28
2022-12-03T00:26:13.262Z,77.50
2022-12-03T00:31:14.919Z,72.40
2022-12-03T00:36:16.966Z,75.65
2022-12-03T00:41:18.637Z,67.10
2022-12-03T00:46:21.737Z,70.45
2022-12-03T00:51:23.852Z,76.03
2022-12-03T00:56:25.752Z,78.93
2022-12-03T01:01:27.758Z,73.15
2022-12-03T01:06:30.031Z,71.57
2022-12-03T01:11:37.660Z,71.43
2022-12-03T01:16:40.479Z,77.13
2022-12-03T01:21:49.983Z,77.00
2022-12-03T01:26:52.290Z,76.28
2022-12-03T01:32:12.542Z,70.68
2022-12-03T01:37:14.434Z,78.63
2022-12-03T01:42:29.519Z,77.20
2022-12-03T01:47:34.789Z,69.47
2022-12-03T01:52:39.272Z,72.57
2022-12-03T01:57:45.989Z,71.80
2022-12-03T02:02:55.060Z,65.50
2022-12-03T02:07:57.294Z,83.28
2022-12-03T02:13:08.598Z,76.63
2022-12-03T02:18:10.802Z,70.50
2022-12-03T02:23:28.529Z,71.85
2022-12-03T02:28:30.382Z,70.50
2022-12-03T02:33:32.540Z,76.82
2022-12-03T02:38:35.814Z,65.90
2022-12-03T02:43:38.174Z,69.95
2022-12-03T02:48:41.869Z,62.90
2022-12-03T02:53:47.565Z,64.25
2022-12-03T02:58:54.926Z,68.38
2022-12-03T03:03:57.267Z,64.93
2022-12-03T03:09:02.888Z,67.75
2022-12-03T03:14:04.780Z,61.58
2022-12-03T03:19:06.509Z,63.17
2022-12-03T03:24:08.254Z,67.30
2022-12-03T03:29:10.114Z,66.40
2022-12-03T03:34:12.731Z,69.57
2022-12-03T03:39:14.539Z,65.05
2022-12-03T03:44:16.240Z,60.58
2022-12-03T03:49:17.912Z,66.63
2022-12-03T03:54:19.702Z,65.50
2022-12-03T03:59:21.809Z,62.72
2022-12-03T04:04:26.777Z,65.47
2022-12-03T04:09:28.504Z,65.90
2022-12-03T04:14:31.990Z,66.82
2022-12-03T04:19:33.668Z,59.03
2022-12-03T04:24:35.319Z,58.25
2022-12-03T04:29:37.024Z,53.03
2022-12-03T04:34:57.583Z,54.25
2022-12-03T04:39:59.380Z,59.85
2022-12-03T04:45:01.068Z,57.55
2022-12-03T04:50:02.705Z,57.20
2022-12-03T04:55:04.627Z,50.03
2022-12-03T05:00:06.965Z,57.20
2022-12-03T05:05:09.247Z,52.72
2022-12-03T05:10:12.108Z,53.47
2022-12-03T05:15:13.809Z,45.85
2022-12-03T05:20:34.654Z,54.63
2022-12-03T05:25:36.366Z,51.42
2022-12-03T05:30:38.167Z,55.30
2022-12-03T05:35:39.918Z,50.25
2022-12-03T05:40:41.629Z,55.80
2022-12-03T05:45:44.437Z,52.30
2022-12-03T05:50:46.940Z,54.15
2022-12-03T05:55:48.602Z,56.15
2022-12-03T06:00:50.260Z,53.33
2022-12-03T06:05:51.845Z,51.70
2022-12-03T06:10:53.510Z,54.75
2022-12-03T06:15:55.183Z,50.60
2022-12-03T06:20:56.823Z,62.72
2022-12-03T06:25:58.452Z,58.97
2022-12-03T06:31:00.173Z,56.05
2022-12-03T06:36:01.895Z,54.65
2022-12-03T06:41:03.609Z,60.70
2022-12-03T06:46:05.566Z,51.17
2022-12-03T06:51:07.312Z,56.40
2022-12-03T06:56:09.152Z,61.75
2022-12-03T07:01:10.867Z,60.72
2022-12-03T07:06:13.095Z,64.63
2022-12-03T07:11:33.097Z,63.83
2022-12-03T07:16:35.943Z,59.05
2022-12-03T07:21:37.981Z,62.22
2022-12-03T07:26:40.054Z,58.17
2022-12-03T07:32:06.599Z,55.75
2022-12-03T07:37:08.360Z,56.00
2022-12-03T07:42:10.092Z,61.85
2022-12-03T07:47:11.799Z,54.50
2022-12-03T07:52:13.609Z,69.43
2022-12-03T07:57:15.399Z,64.10
2022-12-03T08:02:21.396Z,45.05
2022-12-03T08:07:24.048Z,52.47
2022-12-03T08:12:42.995Z,47.90
2022-12-03T08:17:46.911Z,46.33
2022-12-03T08:22:51.348Z,56.83
2022-12-03T08:27:57.385Z,49.70
2022-12-03T08:32:59.580Z,56.65
2022-12-03T08:38:12.931Z,53.40
2022-12-03T08:43:27.599Z,48.03
2022-12-03T08:48:40.700Z,52.38
2022-12-03T08:54:11.983Z,56.28
2022-12-03T08:59:30.160Z,43.17
2022-12-03T09:04:44.288Z,61.63
2022-12-03T09:09:45.882Z,52.58
2022-12-03T09:14:47.553Z,60.22
2022-12-03T09:19:51.311Z,59.45
2022-12-03T09:24:53.193Z,68.00
2022-12-03T09:29:55.009Z,60.05
2022-12-03T09:34:56.889Z,60.72
2022-12-03T09:39:58.709Z,62.42
2022-12-03T09:45:01.740Z,65.32
2022-12-03T09:50:04.791Z,63.00
2022-12-03T09:55:13.810Z,68.07
2022-12-03T10:00:18.700Z,67.57
2022-12-03T10:05:21.885Z,67.35
2022-12-03T10:10:25.151Z,66.75
2022-12-03T10:15:27.442Z,69.65
2022-12-03T10:20:29.132Z,71.75
2022-12-03T10:25:30.890Z,65.65
2022-12-03T10:30:32.966Z,71.55
2022-12-03T10:35:41.180Z,70.85
2022-12-03T10:40:42.944Z,75.88
2022-12-03T10:45:46.466Z,74.35
2022-12-03T10:51:09.720Z,70.85
2022-12-03T10:56:17.389Z,71.47
2022-12-03T11:01:24.895Z,70.05
2022-12-03T11:06:26.673Z,82.85
2022-12-03T11:11:46.975Z,75.72
2022-12-03T11:16:51.460Z,75.70
2022-12-03T11:22:05.470Z,81.85
2022-12-03T11:27:16.941Z,70.93
2022-12-03T11:32:38.897Z,77.35
2022-12-03T11:37:40.588Z,81.65
2022-12-03T11:42:42.984Z,73.72
2022-12-03T11:47:47.859Z,71.45
2022-12-03T11:52:58.631Z,74.72
2022-12-03T11:58:03.808Z,78.97
2022-12-03T12:03:05.602Z,79.05
2022-12-03T12:08:19.563Z,84.25
2022-12-03T12:13:30.344Z,77.00
2022-12-03T12:18:55.542Z,70.07
2022-12-03T12:24:18.009Z,80.18
2022-12-03T12:29:19.733Z,75.30
2022-12-03T12:34:21.382Z,84.70
2022-12-03T12:39:23.126Z,73.38
2022-12-03T12:44:26.419Z,80.22
2022-12-03T12:49:29.686Z,86.25
2022-12-03T12:54:31.418Z,73.60
2022-12-03T12:59:33.099Z,89.65
2022-12-03T13:04:39.991Z,77.82
2022-12-03T13:09:41.689Z,79.00
2022-12-03T13:14:43.357Z,75.57
2022-12-03T13:20:00.561Z,81.38
2022-12-03T13:25:58.236Z,84.32
2022-12-03T13:30:55.958Z,84.68
2022-12-03T13:35:57.818Z,78.15
2022-12-03T13:41:02.764Z,93.97
2022-12-03T13:46:04.564Z,86.70
2022-12-03T13:51:25.938Z,80.10
2022-12-03T13:56:30.606Z,83.70
2022-12-03T14:01:32.765Z,81.28
2022-12-03T14:06:35.012Z,81.20
2022-12-03T14:11:55.763Z,83.60
2022-12-03T14:17:00.076Z,82.65
2022-12-03T14:22:02.664Z,86.80
2022-12-03T14:27:04.455Z,87.30
2022-12-03T14:32:06.335Z,86.53
2022-12-03T14:37:08.416Z,81.60
2022-12-03T14:42:16.901Z,79.43
2022-12-03T14:47:22.470Z,87.60
2022-12-03T14:52:24.118Z,72.90
2022-12-03T14:57:25.981Z,77.72
2022-12-03T15:02:28.934Z,82.03
2022-12-03T15:07:32.043Z,82.70
2022-12-03T15:12:35.725Z,82.40
2022-12-03T15:17:37.413Z,77.63
2022-12-03T15:22:39.280Z,74.13
2022-12-03T15:27:41.580Z,75.70
2022-12-03T15:32:43.175Z,69.80
2022-12-03T15:37:45.274Z,70.30
2022-12-03T15:42:47.270Z,66.10
2022-12-03T15:47:49.007Z,73.95
2022-12-03T15:52:50.745Z,73.55
2022-12-03T15:57:52.409Z,74.57
2022-12-03T16:02:54.136Z,82.00
2022-12-03T16:07:55.880Z,88.10
2022-12-03T16:12:57.525Z,84.03
2022-12-03T16:17:59.285Z,83.10
2022-12-03T16:23:00.973Z,74.35
2022-12-03T16:28:02.682Z,88.63
2022-12-03T16:33:04.463Z,86.80
2022-12-03T16:38:06.193Z,90.28
2022-12-03T16:43:09.691Z,82.57
2022-12-03T16:48:11.290Z,79.53
2022-12-03T16:53:13.435Z,87.35
2022-12-03T16:58:15.341Z,82.38
2022-12-03T17:03:20.129Z,84.80
2022-12-03T17:08:22.006Z,78.38
2022-12-03T17:13:23.827Z,87.05
2022-12-03T17:18:25.832Z,82.75
2022-12-03T17:23:27.627Z,89.90
2022-12-03T17:28:29.519Z,87.93
2022-12-03T17:33:31.222Z,94.80
2022-12-03T17:38:38.852Z,90.60
2022-12-03T17:43:41.050Z,92.30
2022-12-03T17:48:42.741Z,86.90
2022-12-03T17:53:44.620Z,94.70
2022-12-03T17:58:47.462Z,90.95
2022-12-03T18:03:49.235Z,84.97
2022-12-03T18:08:50.966Z,84.07
2022-12-03T18:13:52.690Z,94.90
2022-12-03T18:18:57.089Z,87.97
2022-12-03T18:24:02.283Z,88.72
2022-12-03T18:29:04.013Z,90.07
2022-12-03T18:34:05.724Z,95.55
2022-12-03T18:39:13.492Z,89.20
2022-12-03T18:44:15.147Z,86.78
2022-12-03T18:49:17.045Z,78.80
2022-12-03T18:54:18.726Z,90.75
2022-12-03T18:59:20.394Z,97.15
2022-12-03T19:04:22.525Z,89.90
2022-12-03T19:09:24.392Z,95.65
2022-12-03T19:14:26.166Z,87.15
2022-12-03T19:19:28.437Z,90.05
2022-12-03T19:24:30.626Z,84.80
2022-12-03T19:29:32.413Z,82.18
2022-12-03T19:34:34.287Z,92.75
2022-12-03T19:39:36.174Z,87.25
2022-12-03T19:44:37.943Z,79.15
2022-12-03T19:49:39.615Z,82.32
2022-12-03T19:54:41.248Z,81.65
2022-12-03T19:59:43.256Z,123.78
2022-12-03T20:04:44.939Z,122.28
2022-12-03T20:09:50.304Z,87.93
2022-12-03T20:14:52.029Z,89.55
2022-12-03T20:19:55.926Z,79.18
2022-12-03T20:24:57.792Z,73.72
2022-12-03T20:29:59.455Z,80.60
2022-12-03T20:35:03.500Z,73.63
2022-12-03T20:40:06.095Z,74.05
2022-12-03T20:45:08.461Z,73.72
2022-12-03T20:50:10.297Z,71.18
2022-12-03T20:55:12.099Z,71.18
2022-12-03T21:00:14.543Z,77.15
2022-12-03T21:05:16.960Z,79.90
2022-12-03T21:10:44.501Z,92.55
2022-12-03T21:20:48.505Z,89.13
2022-12-03T21:25:50.409Z,89.80
2022-12-03T21:30:52.392Z,96.95
2022-12-03T21:35:55.571Z,92.63
2022-12-03T21:40:58.308Z,90.30
2022-12-03T21:46:04.219Z,98.78
2022-12-03T21:51:25.804Z,98.25
2022-12-03T21:56:30.381Z,96.75
2022-12-03T22:01:32.205Z,94.20
2022-12-03T22:06:34.048Z,93.05
2022-12-03T22:11:35.792Z,101.32
2022-12-03T22:16:37.548Z,107.35
2022-12-03T22:21:39.616Z,101.07
2022-12-03T22:26:41.228Z,108.47
2022-12-03T22:31:42.913Z,102.50
2022-12-03T22:36:44.548Z,104.38
2022-12-03T22:41:46.225Z,107.70
2022-12-03T22:46:48.003Z,106.40
2022-12-03T22:51:49.776Z,101.72
2022-12-03T22:56:51.521Z,103.95
2022-12-03T23:01:53.243Z,95.47
2022-12-03T23:06:54.887Z,99.07
2022-12-03T23:11:56.507Z,106.38
2022-12-03T23:16:58.147Z,108.80
2022-12-03T23:21:59.765Z,105.88
2022-12-03T23:27:01.395Z,99.72
2022-12-03T23:32:03.136Z,98.75
2022-12-03T23:37:04.842Z,102.05
2022-12-03T23:42:06.440Z,103.35
2022-12-03T23:47:08.107Z,98.78
2022-12-03T23:52:09.833Z,104.07
2022-12-03T23:57:12.654Z,104.30
